createdAt,value
2019-04-16T00:01:28.390Z,9.37
2019-04-16T00:04:05.444Z,9.29
2019-04-16T00:07:06.147Z,9.32
2019-04-16T00:09:55.247Z,9.28
2019-04-16T00:12:43.637Z,9.22
2019-04-16T00:15:13.060Z,9.24
2019-04-16T00:17:44.346Z,9.24
2019-04-16T00:20:13.507Z,9.15
2019-04-16T00:22:55.808Z,9.02
2019-04-16T00:25:25.138Z,9.04
2019-04-16T00:27:54.569Z,8.98
2019-04-16T00:30:24.019Z,8.92
2019-04-16T00:32:54.921Z,8.78
2019-04-16T00:35:24.306Z,8.65
2019-04-16T00:37:53.963Z,8.68
2019-04-16T00:40:26.392Z,8.60
2019-04-16T00:42:54.421Z,8.61
2019-04-16T00:45:23.745Z,8.61
2019-04-16T00:47:53.141Z,8.57
2019-04-16T00:50:22.489Z,8.52
2019-04-16T00:52:53.991Z,8.49
2019-04-16T00:55:23.382Z,8.40
2019-04-16T00:57:52.768Z,8.34
2019-04-16T01:00:22.109Z,8.22
2019-04-16T01:02:51.471Z,8.15
2019-04-16T01:05:20.972Z,8.12
2019-04-16T01:07:50.338Z,7.96
2019-04-16T01:10:19.696Z,7.89
2019-04-16T01:12:49.018Z,7.84
2019-04-16T01:15:18.411Z,7.83
2019-04-16T01:17:47.794Z,7.74
2019-04-16T01:20:17.135Z,7.69
2019-04-16T01:22:47.457Z,7.71
2019-04-16T01:25:16.946Z,7.68
2019-04-16T01:27:51.551Z,7.64
2019-04-16T01:30:31.102Z,7.57
2019-04-16T01:33:07.455Z,7.58
2019-04-16T01:36:01.874Z,7.50
2019-04-16T01:39:13.590Z,7.44
2019-04-16T01:41:27.507Z,7.39
2019-04-16T01:43:57.282Z,7.28
2019-04-16T01:46:27.414Z,7.22
2019-04-16T01:48:56.760Z,7.17
2019-04-16T01:51:26.142Z,7.16
2019-04-16T01:53:55.537Z,7.10
2019-04-16T01:56:27.968Z,7.13
2019-04-16T01:58:56.003Z,7.09
2019-04-16T02:01:25.954Z,7.06
2019-04-16T02:03:55.391Z,7.03
2019-04-16T02:06:25.963Z,7.00
2019-04-16T02:08:56.056Z,6.99
2019-04-16T02:11:25.431Z,6.93
2019-04-16T02:13:54.828Z,6.91
2019-04-16T02:16:25.216Z,6.90
2019-04-16T02:18:55.320Z,6.83
2019-04-16T02:21:24.702Z,6.74
2019-04-16T02:23:54.065Z,6.75
2019-04-16T02:26:24.372Z,6.74
2019-04-16T02:28:56.509Z,6.78
2019-04-16T02:31:24.861Z,6.79
2019-04-16T02:33:54.361Z,6.78
2019-04-16T02:36:23.746Z,6.78
2019-04-16T02:38:53.778Z,6.74
2019-04-16T02:41:24.670Z,6.82
2019-04-16T02:43:54.211Z,6.77
2019-04-16T02:46:23.564Z,6.70
2019-04-16T02:48:52.890Z,6.78
2019-04-16T02:51:41.721Z,6.81
2019-04-16T02:54:36.286Z,6.85
2019-04-16T02:57:26.561Z,6.82
2019-04-16T02:59:56.481Z,6.82
2019-04-16T03:02:45.110Z,6.80
2019-04-16T03:05:20.983Z,6.80
2019-04-16T03:07:50.330Z,6.81
2019-04-16T03:10:19.693Z,6.89
2019-04-16T03:12:51.843Z,6.79
2019-04-16T03:15:40.301Z,6.73
2019-04-16T03:18:11.669Z,6.71
2019-04-16T03:20:40.924Z,6.63
2019-04-16T03:23:10.313Z,6.66
2019-04-16T03:25:41.329Z,6.65
2019-04-16T03:28:11.508Z,6.58
2019-04-16T03:30:42.877Z,6.54
2019-04-16T03:33:14.301Z,6.46
2019-04-16T03:35:43.203Z,6.48
2019-04-16T03:38:12.578Z,6.47
2019-04-16T03:40:41.937Z,6.55
2019-04-16T03:43:11.322Z,6.50
2019-04-16T03:45:41.176Z,6.47
2019-04-16T03:48:10.608Z,6.38
2019-04-16T03:50:39.946Z,6.43
2019-04-16T03:53:09.310Z,6.41
2019-04-16T03:55:38.990Z,6.40
2019-04-16T03:58:08.393Z,6.49
2019-04-16T04:00:43.873Z,6.52
2019-04-16T04:03:10.556Z,6.48
2019-04-16T04:05:39.941Z,6.49
2019-04-16T04:08:09.360Z,6.43
2019-04-16T04:10:38.704Z,6.51
2019-04-16T04:13:08.104Z,6.59
2019-04-16T04:15:37.504Z,6.62
2019-04-16T04:18:14.171Z,6.61
2019-04-16T04:20:43.579Z,6.63
2019-04-16T04:23:12.985Z,6.76
2019-04-16T04:25:42.389Z,6.79
2019-04-16T04:28:11.757Z,6.86
2019-04-16T04:30:41.117Z,6.91
2019-04-16T04:33:12.170Z,6.95
2019-04-16T04:35:41.489Z,7.03
2019-04-16T04:38:10.862Z,7.10
2019-04-16T04:40:44.739Z,7.16
2019-04-16T04:43:11.327Z,7.22
2019-04-16T04:45:41.518Z,7.26
2019-04-16T04:48:11.972Z,7.40
2019-04-16T04:50:41.630Z,7.40
2019-04-16T04:53:11.070Z,7.51
2019-04-16T04:55:40.409Z,7.59
2019-04-16T04:58:09.769Z,7.65
2019-04-16T05:00:41.203Z,7.67
2019-04-16T05:03:15.529Z,7.59
2019-04-16T05:05:48.524Z,7.64
2019-04-16T05:08:17.911Z,7.80
2019-04-16T05:10:58.322Z,7.77
2019-04-16T05:13:18.463Z,7.62
2019-04-16T05:15:48.118Z,7.68
2019-04-16T05:18:17.502Z,7.82
2019-04-16T05:20:47.628Z,7.98
2019-04-16T05:23:17.228Z,7.97
2019-04-16T05:25:46.615Z,8.05
2019-04-16T05:28:16.206Z,8.00
2019-04-16T05:30:45.571Z,8.15
2019-04-16T05:33:14.913Z,8.26
2019-04-16T05:35:44.513Z,8.33
2019-04-16T05:38:13.905Z,8.39
2019-04-16T05:40:43.248Z,8.53
2019-04-16T05:43:12.583Z,8.52
2019-04-16T05:45:41.948Z,8.45
2019-04-16T05:48:11.466Z,8.50
2019-04-16T05:50:40.815Z,8.42
2019-04-16T05:53:12.797Z,8.39
2019-04-16T05:56:15.157Z,8.32
2019-04-16T05:58:44.614Z,8.31
2019-04-16T06:01:26.218Z,8.46
2019-04-16T06:03:55.603Z,8.56
2019-04-16T06:06:24.959Z,8.59
2019-04-16T06:08:56.110Z,8.69
2019-04-16T06:11:29.106Z,8.79
2019-04-16T06:14:08.727Z,8.86
2019-04-16T06:16:49.229Z,8.91
2019-04-16T06:19:34.307Z,8.90
2019-04-16T06:22:34.585Z,8.96
2019-04-16T06:25:21.141Z,9.09
2019-04-16T06:28:09.434Z,9.16
2019-04-16T06:31:04.976Z,9.20
2019-04-16T06:33:46.200Z,9.38
2019-04-16T06:36:49.600Z,9.49
2019-04-16T06:39:40.997Z,9.64
2019-04-16T06:42:23.517Z,9.80
2019-04-16T06:45:01.591Z,9.90
2019-04-16T06:47:52.071Z,9.91
2019-04-16T06:50:49.746Z,10.05
2019-04-16T06:53:39.485Z,10.13
2019-04-16T06:56:27.787Z,10.09
2019-04-16T06:59:34.773Z,9.99
2019-04-16T07:02:27.624Z,9.74
2019-04-16T07:05:21.702Z,9.67
2019-04-16T07:08:36.915Z,9.47
2019-04-16T07:11:01.586Z,9.54
2019-04-16T07:13:30.970Z,9.51
2019-04-16T07:16:00.441Z,9.41
2019-04-16T07:18:29.779Z,9.55
2019-04-16T07:20:59.144Z,9.45
2019-04-16T07:23:28.560Z,9.46
2019-04-16T07:25:57.941Z,9.22
2019-04-16T07:28:36.148Z,9.52
2019-04-16T07:31:32.769Z,9.62
2019-04-16T07:34:11.028Z,9.78
2019-04-16T07:37:17.602Z,9.86
2019-04-16T07:40:14.382Z,9.94
2019-04-16T07:43:06.047Z,10.04
2019-04-16T07:45:54.525Z,10.03
2019-04-16T07:48:33.104Z,9.95
2019-04-16T07:51:20.135Z,10.04
2019-04-16T07:54:07.301Z,10.01
2019-04-16T07:56:38.214Z,10.24
2019-04-16T07:59:07.613Z,10.19
2019-04-16T08:01:37.066Z,10.62
2019-04-16T08:04:06.471Z,10.85
2019-04-16T08:06:35.794Z,11.05
2019-04-16T08:09:07.547Z,10.94
2019-04-16T08:11:36.929Z,11.06
2019-04-16T08:14:09.819Z,11.22
2019-04-16T08:16:47.193Z,11.11
2019-04-16T08:19:08.594Z,10.89
2019-04-16T08:21:40.650Z,10.72
2019-04-16T08:24:12.480Z,10.55
2019-04-16T08:26:45.064Z,10.67
2019-04-16T08:29:12.969Z,10.83
2019-04-16T08:31:45.567Z,11.16
2019-04-16T08:34:14.952Z,11.54
2019-04-16T08:36:44.356Z,11.82
2019-04-16T08:39:14.975Z,12.01
2019-04-16T08:41:44.353Z,11.92
2019-04-16T08:44:13.738Z,12.06
2019-04-16T08:46:43.173Z,12.09
2019-04-16T08:49:14.801Z,12.23
2019-04-16T08:51:43.827Z,12.35
2019-04-16T08:54:17.667Z,12.52
2019-04-16T08:56:44.290Z,12.87
2019-04-16T08:59:13.691Z,13.15
2019-04-16T09:01:43.077Z,12.87
2019-04-16T09:04:12.421Z,12.65
2019-04-16T09:06:42.591Z,12.63
2019-04-16T09:09:50.290Z,12.67
2019-04-16T09:12:19.683Z,12.48
2019-04-16T09:14:55.968Z,12.70
2019-04-16T09:17:30.500Z,12.92
2019-04-16T09:20:06.338Z,12.86
2019-04-16T09:22:48.041Z,12.89
2019-04-16T09:25:16.472Z,13.21
2019-04-16T09:27:49.635Z,13.28
2019-04-16T09:30:36.540Z,13.56
2019-04-16T09:33:24.832Z,13.95
2019-04-16T09:36:19.454Z,13.66
2019-04-16T09:39:07.802Z,13.44
2019-04-16T09:41:40.446Z,13.24
2019-04-16T09:44:09.885Z,13.30
2019-04-16T09:46:59.420Z,13.23
2019-04-16T09:49:10.324Z,13.65
2019-04-16T09:51:39.671Z,14.11
2019-04-16T09:54:12.310Z,14.11
2019-04-16T09:56:40.119Z,13.99
2019-04-16T09:59:27.173Z,13.61
2019-04-16T10:02:01.845Z,13.49
2019-04-16T10:04:31.205Z,13.65
2019-04-16T10:07:00.604Z,13.76
2019-04-16T10:09:29.951Z,13.59
2019-04-16T10:11:59.328Z,13.62
2019-04-16T10:14:29.105Z,13.51
2019-04-16T10:16:58.425Z,13.57
2019-04-16T10:19:27.800Z,13.49
2019-04-16T10:21:57.185Z,13.52
2019-04-16T10:24:54.664Z,13.69
2019-04-16T10:27:32.488Z,14.08
2019-04-16T10:30:02.065Z,14.30
2019-04-16T10:32:31.435Z,14.52
2019-04-16T10:35:00.757Z,14.46
2019-04-16T10:37:30.246Z,14.15
2019-04-16T10:40:13.574Z,14.39
2019-04-16T10:43:00.813Z,14.58
2019-04-16T10:45:47.982Z,15.04
2019-04-16T10:48:43.186Z,15.62
2019-04-16T10:51:31.769Z,16.04
2019-04-16T10:54:20.053Z,15.43
2019-04-16T10:57:10.241Z,14.90
2019-04-16T11:00:05.890Z,15.65
2019-04-16T11:02:47.944Z,16.50
2019-04-16T11:05:30.876Z,16.86
2019-04-16T11:08:01.018Z,16.66
2019-04-16T11:10:30.424Z,16.29
2019-04-16T11:13:00.552Z,16.09
2019-04-16T11:15:30.136Z,15.61
2019-04-16T11:17:59.630Z,15.15
2019-04-16T11:20:29.055Z,15.31
2019-04-16T11:22:58.479Z,15.07
2019-04-16T11:25:27.893Z,14.76
2019-04-16T11:27:57.570Z,14.61
2019-04-16T11:30:35.554Z,13.62
2019-04-16T11:33:05.214Z,13.62
2019-04-16T11:35:34.740Z,13.03
2019-04-16T11:38:04.321Z,12.61
2019-04-16T11:40:33.710Z,12.29
2019-04-16T11:43:03.308Z,12.07
2019-04-16T11:45:33.670Z,11.89
2019-04-16T11:48:03.190Z,11.65
2019-04-16T11:50:35.860Z,11.45
2019-04-16T11:53:03.982Z,11.43
2019-04-16T11:55:33.367Z,11.41
2019-04-16T11:58:02.917Z,11.37
2019-04-16T12:00:40.241Z,11.49
2019-04-16T12:03:16.962Z,11.43
2019-04-16T12:06:27.035Z,11.57
2019-04-16T12:09:04.438Z,11.76
2019-04-16T12:11:48.517Z,11.61
2019-04-16T12:14:42.417Z,11.75
2019-04-16T12:17:18.455Z,11.83
2019-04-16T12:20:06.777Z,11.81
2019-04-16T12:22:55.633Z,11.79
2019-04-16T12:25:46.959Z,11.89
2019-04-16T12:28:44.342Z,12.05
2019-04-16T12:31:32.605Z,11.99
2019-04-16T12:34:19.727Z,11.83
2019-04-16T12:36:59.454Z,11.98
2019-04-16T12:39:36.982Z,12.14
2019-04-16T12:42:31.477Z,12.20
2019-04-16T12:45:19.763Z,11.98
2019-04-16T12:48:06.698Z,12.11
2019-04-16T12:50:42.359Z,12.16
2019-04-16T12:53:24.352Z,12.22
2019-04-16T12:56:11.426Z,11.92
2019-04-16T12:58:51.794Z,11.94
2019-04-16T13:01:36.513Z,12.01
2019-04-16T13:04:12.882Z,12.10
2019-04-16T13:07:04.624Z,12.06
2019-04-16T13:09:53.074Z,12.05
2019-04-16T13:12:27.872Z,11.97
2019-04-16T13:15:14.924Z,12.13
2019-04-16T13:18:21.605Z,12.23
2019-04-16T13:21:06.260Z,12.42
2019-04-16T13:23:55.573Z,12.61
2019-04-16T13:26:45.256Z,12.85
2019-04-16T13:29:17.452Z,12.82
2019-04-16T13:31:46.944Z,13.18
2019-04-16T13:34:18.667Z,15.01
2019-04-16T13:36:51.328Z,15.01
2019-04-16T13:39:26.634Z,15.72
2019-04-16T13:41:56.050Z,15.71
2019-04-16T13:44:27.840Z,15.41
2019-04-16T13:47:01.403Z,14.82
2019-04-16T13:49:33.402Z,14.53
2019-04-16T13:52:02.947Z,14.53
2019-04-16T13:54:54.749Z,14.24
2019-04-16T13:57:24.559Z,14.24
2019-04-16T14:00:13.106Z,14.06
2019-04-16T14:02:57.059Z,15.08
2019-04-16T14:05:26.546Z,16.44
2019-04-16T14:07:55.914Z,17.48
2019-04-16T14:10:25.619Z,18.17
2019-04-16T14:12:58.085Z,18.42
2019-04-16T14:15:35.679Z,18.60
2019-04-16T14:18:02.824Z,18.18
2019-04-16T14:20:32.210Z,17.30
2019-04-16T14:23:01.630Z,17.32
2019-04-16T14:25:31.226Z,16.91
2019-04-16T14:28:03.177Z,15.90
2019-04-16T14:30:39.567Z,15.28
2019-04-16T14:33:09.012Z,14.35
2019-04-16T14:35:40.351Z,14.35
2019-04-16T14:38:10.024Z,13.73
2019-04-16T14:40:39.634Z,12.95
2019-04-16T14:43:11.191Z,12.22
2019-04-16T14:45:58.338Z,11.59
2019-04-16T14:48:19.664Z,11.54
2019-04-16T14:50:49.037Z,11.81
2019-04-16T14:53:31.065Z,11.90
2019-04-16T14:56:04.794Z,11.91
2019-04-16T14:59:02.277Z,12.33
2019-04-16T15:02:06.013Z,12.53
2019-04-16T15:04:57.069Z,12.53
2019-04-16T15:07:36.678Z,12.59
2019-04-16T15:10:29.462Z,12.84
2019-04-16T15:13:16.850Z,13.48
2019-04-16T15:16:13.193Z,13.83
2019-04-16T15:19:04.743Z,13.70
2019-04-16T15:22:03.686Z,13.52
2019-04-16T15:25:04.286Z,13.40
2019-04-16T15:27:49.473Z,13.18
2019-04-16T15:30:35.305Z,13.44
2019-04-16T15:33:32.519Z,13.89
2019-04-16T15:36:20.854Z,14.51
2019-04-16T15:39:21.588Z,14.79
2019-04-16T15:42:21.812Z,15.14
2019-04-16T15:45:13.204Z,15.02
2019-04-16T15:48:00.276Z,14.05
2019-04-16T15:50:38.929Z,13.49
2019-04-16T15:53:17.974Z,13.03
2019-04-16T15:55:55.348Z,12.82
2019-04-16T15:58:40.765Z,12.62
2019-04-16T16:01:27.914Z,12.59
2019-04-16T16:04:28.626Z,12.28
2019-04-16T16:07:01.327Z,12.24
2019-04-16T16:10:04.751Z,12.26
2019-04-16T16:12:34.454Z,12.19
2019-04-16T16:15:07.647Z,12.04
2019-04-16T16:17:35.174Z,12.05
2019-04-16T16:20:09.582Z,12.06
2019-04-16T16:22:36.070Z,12.07
2019-04-16T16:25:06.563Z,12.14
2019-04-16T16:27:41.675Z,12.26
2019-04-16T16:30:07.712Z,12.37
2019-04-16T16:32:37.121Z,12.49
2019-04-16T16:35:07.137Z,12.71
2019-04-16T16:37:37.500Z,13.06
2019-04-16T16:40:07.123Z,13.44
2019-04-16T16:42:36.522Z,13.72
2019-04-16T16:45:07.512Z,13.92
2019-04-16T16:47:40.145Z,14.04
2019-04-16T16:50:12.382Z,14.15
2019-04-16T16:53:00.695Z,14.03
2019-04-16T16:55:42.207Z,13.97
2019-04-16T16:58:30.211Z,13.97
2019-04-16T17:01:16.969Z,13.97
2019-04-16T17:04:08.586Z,13.85
2019-04-16T17:06:38.007Z,13.74
2019-04-16T17:09:09.185Z,13.52
2019-04-16T17:11:40.151Z,13.08
2019-04-16T17:14:09.928Z,12.95
2019-04-16T17:16:39.302Z,12.84
2019-04-16T17:19:08.881Z,12.86
2019-04-16T17:21:38.290Z,12.75
2019-04-16T17:24:07.688Z,12.66
2019-04-16T17:26:37.077Z,12.73
2019-04-16T17:29:06.689Z,12.62
2019-04-16T17:31:36.295Z,12.52
2019-04-16T17:34:05.653Z,12.51
2019-04-16T17:36:35.190Z,12.34
2019-04-16T17:39:10.526Z,12.28
2019-04-16T17:41:43.840Z,12.25
2019-04-16T17:44:20.230Z,12.15
2019-04-16T17:46:59.542Z,12.06
2019-04-16T17:49:36.667Z,12.02
2019-04-16T17:52:12.636Z,11.97
2019-04-16T17:55:07.046Z,11.90
2019-04-16T17:57:55.693Z,11.94
2019-04-16T18:00:47.105Z,11.83
2019-04-16T18:03:47.678Z,11.79
2019-04-16T18:06:24.650Z,11.62
2019-04-16T18:09:03.059Z,11.45
2019-04-16T18:11:47.402Z,11.57
2019-04-16T18:14:48.301Z,11.69
2019-04-16T18:17:46.921Z,11.44
2019-04-16T18:20:56.768Z,11.48
2019-04-16T18:23:30.416Z,11.45
2019-04-16T18:26:27.669Z,11.31
2019-04-16T18:29:03.513Z,11.26
2019-04-16T18:31:46.305Z,11.12
2019-04-16T18:34:26.647Z,11.04
2019-04-16T18:37:16.087Z,10.91
2019-04-16T18:39:52.600Z,10.84
2019-04-16T18:42:32.785Z,10.75
2019-04-16T18:45:19.698Z,10.70
2019-04-16T18:48:04.703Z,10.69
2019-04-16T18:50:31.660Z,10.60
2019-04-16T18:53:01.063Z,10.54
2019-04-16T18:55:30.539Z,10.48
2019-04-16T18:58:00.758Z,10.45
2019-04-16T19:00:42.980Z,10.42
2019-04-16T19:03:15.127Z,10.42
2019-04-16T19:05:43.550Z,10.35
2019-04-16T19:08:12.966Z,10.30
2019-04-16T19:10:42.499Z,10.30
2019-04-16T19:13:11.949Z,10.27
2019-04-16T19:15:41.303Z,10.25
2019-04-16T19:18:19.814Z,10.25
2019-04-16T19:20:42.096Z,10.20
2019-04-16T19:23:11.445Z,10.14
2019-04-16T19:25:40.824Z,10.12
2019-04-16T19:28:10.606Z,10.12
2019-04-16T19:30:40.104Z,10.04
2019-04-16T19:33:09.551Z,10.01
2019-04-16T19:35:38.924Z,9.97
2019-04-16T19:38:08.857Z,10.04
2019-04-16T19:40:40.374Z,9.95
2019-04-16T19:43:09.780Z,9.93
2019-04-16T19:45:40.618Z,9.94
2019-04-16T19:48:10.308Z,9.97
2019-04-16T19:50:39.686Z,9.91
2019-04-16T19:53:13.780Z,9.81
2019-04-16T19:55:40.236Z,9.89
2019-04-16T19:58:09.582Z,9.67
2019-04-16T20:00:39.017Z,9.80
2019-04-16T20:03:08.383Z,9.80
2019-04-16T20:05:37.880Z,9.81
2019-04-16T20:08:07.306Z,9.74
2019-04-16T20:10:36.714Z,9.65
2019-04-16T20:13:06.049Z,9.65
2019-04-16T20:15:35.448Z,9.55
2019-04-16T20:18:07.080Z,9.57
2019-04-16T20:20:35.975Z,9.46
2019-04-16T20:23:05.863Z,9.40
2019-04-16T20:25:35.688Z,9.23
2019-04-16T20:28:09.236Z,9.35
2019-04-16T20:30:36.539Z,9.25
2019-04-16T20:33:06.068Z,9.30
2019-04-16T20:35:35.531Z,9.28
2019-04-16T20:38:04.905Z,9.27
2019-04-16T20:40:34.272Z,9.23
2019-04-16T20:43:03.807Z,9.20
2019-04-16T20:45:33.110Z,9.26
2019-04-16T20:48:02.492Z,9.19
2019-04-16T20:50:31.925Z,9.08
2019-04-16T20:53:06.189Z,9.13
2019-04-16T20:55:33.883Z,9.10
2019-04-16T20:58:03.386Z,9.02
2019-04-16T21:00:34.044Z,9.08
2019-04-16T21:03:03.856Z,9.07
2019-04-16T21:05:35.757Z,8.80
2019-04-16T21:08:04.630Z,8.94
2019-04-16T21:10:35.694Z,8.90
2019-04-16T21:13:05.247Z,8.88
2019-04-16T21:15:34.642Z,8.86
2019-04-16T21:18:04.016Z,8.89
2019-04-16T21:20:33.453Z,8.77
2019-04-16T21:23:03.489Z,8.72
2019-04-16T21:25:33.336Z,8.74
2019-04-16T21:28:24.747Z,8.62
2019-04-16T21:30:58.589Z,8.73
2019-04-16T21:33:36.030Z,8.71
2019-04-16T21:36:06.033Z,8.66
2019-04-16T21:38:48.974Z,8.57
2019-04-16T21:41:18.315Z,8.63
2019-04-16T21:43:47.819Z,8.59
2019-04-16T21:46:20.149Z,8.46
2019-04-16T21:48:48.247Z,8.41
2019-04-16T21:51:19.477Z,8.40
2019-04-16T21:53:48.701Z,8.36
2019-04-16T21:56:18.055Z,8.31
2019-04-16T21:58:50.156Z,8.26
2019-04-16T22:01:35.782Z,7.85
2019-04-16T22:04:13.500Z,8.11
2019-04-16T22:06:40.577Z,8.03
2019-04-16T22:09:10.021Z,8.01
2019-04-16T22:11:43.289Z,7.98
2019-04-16T22:14:10.580Z,7.94
2019-04-16T22:16:39.929Z,7.91
2019-04-16T22:19:11.109Z,7.90
2019-04-16T22:21:42.834Z,7.90
2019-04-16T22:24:11.446Z,7.89
2019-04-16T22:26:40.802Z,7.91
2019-04-16T22:29:15.351Z,7.83
2019-04-16T22:31:41.244Z,7.84
2019-04-16T22:34:10.594Z,7.80
2019-04-16T22:36:39.945Z,7.78
2019-04-16T22:39:22.913Z,7.74
2019-04-16T22:42:07.754Z,7.84
2019-04-16T22:45:05.068Z,7.83
2019-04-16T22:47:34.654Z,7.66
2019-04-16T22:50:14.762Z,7.75
2019-04-16T22:52:35.525Z,7.69
2019-04-16T22:55:05.055Z,7.58
2019-04-16T22:57:34.461Z,7.69
2019-04-16T23:00:08.666Z,7.63
2019-04-16T23:02:36.806Z,7.61
2019-04-16T23:05:06.320Z,7.53
2019-04-16T23:07:36.620Z,7.52
2019-04-16T23:10:06.526Z,7.48
2019-04-16T23:12:35.886Z,7.46
2019-04-16T23:15:06.771Z,7.43
2019-04-16T23:17:36.137Z,7.43
2019-04-16T23:20:05.750Z,7.44
2019-04-16T23:22:35.088Z,7.44
2019-04-16T23:25:04.869Z,7.42
2019-04-16T23:27:37.178Z,7.37
2019-04-16T23:30:05.619Z,7.36
2019-04-16T23:32:35.014Z,7.35
2019-04-16T23:35:09.186Z,7.35
2019-04-16T23:37:35.745Z,7.31
2019-04-16T23:40:07.475Z,7.29
2019-04-16T23:42:38.425Z,7.22
2019-04-16T23:45:33.436Z,7.20
2019-04-16T23:48:15.535Z,7.19
2019-04-16T23:50:54.701Z,7.18
2019-04-16T23:54:01.153Z,7.18
2019-04-16T23:56:55.615Z,7.14
2019-04-16T23:59:35.957Z,7.15
